createdAt,value
2022-10-13T00:01:04.298Z,99.9
2022-10-13T00:03:08.273Z,99.9
2022-10-13T00:05:12.419Z,99.9
2022-10-13T00:07:16.302Z,99.9
2022-10-13T00:09:23.336Z,99.9
2022-10-13T00:11:27.364Z,99.9
2022-10-13T00:19:43.438Z,99.9
2022-10-13T00:23:54.601Z,99.9
2022-10-13T00:25:58.520Z,99.9
2022-10-13T00:28:02.557Z,99.9
2022-10-13T00:29:06.056Z,99.9
2022-10-13T00:31:10.098Z,99.9
2022-10-13T00:33:14.115Z,99.9
2022-10-13T00:35:18.261Z,99.9
2022-10-13T00:37:25.192Z,99.9
2022-10-13T00:39:29.202Z,99.9
2022-10-13T00:41:33.230Z,99.9
2022-10-13T00:43:37.269Z,99.9
2022-10-13T00:45:41.288Z,99.9
2022-10-13T00:47:45.319Z,99.9
2022-10-13T00:49:49.334Z,99.9
2022-10-13T00:51:56.395Z,99.9
2022-10-13T00:54:00.403Z,99.9
2022-10-13T00:56:04.433Z,99.9
2022-10-13T00:58:08.461Z,99.9
2022-10-13T01:00:12.473Z,99.9
2022-10-13T01:02:16.832Z,99.9
2022-10-13T01:04:20.545Z,99.9
2022-10-13T01:06:27.576Z,99.9
2022-10-13T01:08:31.602Z,99.9
2022-10-13T01:10:35.636Z,99.9
2022-10-13T01:12:39.664Z,99.9
2022-10-13T01:14:43.698Z,99.9
2022-10-13T01:16:47.735Z,99.9
2022-10-13T01:18:51.762Z,99.9
2022-10-13T01:20:58.796Z,99.9
2022-10-13T01:23:02.842Z,99.9
2022-10-13T01:25:06.861Z,99.9
2022-10-13T01:26:10.380Z,99.9
2022-10-13T01:28:14.482Z,99.9
2022-10-13T01:30:18.431Z,99.9
2022-10-13T01:32:22.479Z,99.9
2022-10-13T01:34:29.638Z,99.9
2022-10-13T01:38:37.575Z,99.9
2022-10-13T01:40:41.627Z,99.9
2022-10-13T01:44:49.700Z,99.9
2022-10-13T01:46:53.736Z,99.9
2022-10-13T01:49:00.775Z,99.9
2022-10-13T01:51:04.821Z,99.9
2022-10-13T01:55:12.884Z,99.9
2022-10-13T01:57:16.916Z,99.9
2022-10-13T01:59:20.959Z,99.9
2022-10-13T02:01:24.994Z,99.9
2022-10-13T02:03:32.056Z,99.9
2022-10-13T02:05:36.091Z,99.9
2022-10-13T02:07:40.149Z,99.9
2022-10-13T02:11:49.784Z,99.9
2022-10-13T02:13:53.782Z,99.9
2022-10-13T02:15:57.814Z,99.9
2022-10-13T02:20:08.902Z,99.9
2022-10-13T02:22:12.949Z,99.9
2022-10-13T02:24:35.404Z,99.9
2022-10-13T02:26:39.430Z,99.9
2022-10-13T02:28:43.519Z,99.9
2022-10-13T02:30:50.530Z,99.9
2022-10-13T02:32:54.574Z,99.9
2022-10-13T02:34:58.619Z,99.9
2022-10-13T02:37:02.674Z,99.9
2022-10-13T02:41:10.737Z,99.9
2022-10-13T02:47:25.909Z,99.9
2022-10-13T02:49:29.929Z,99.9
2022-10-13T02:53:38.020Z,99.9
2022-10-13T02:55:42.060Z,99.9
2022-10-13T02:57:46.094Z,99.9
2022-10-13T03:01:57.621Z,99.9
2022-10-13T03:12:18.145Z,99.9
2022-10-13T03:16:28.992Z,99.9
2022-10-13T03:18:33.076Z,99.9
2022-10-13T03:19:36.580Z,99.9
2022-10-13T03:21:40.649Z,99.9
2022-10-13T03:25:48.769Z,99.9
2022-10-13T03:29:59.928Z,99.9
2022-10-13T03:32:03.950Z,99.9
2022-10-13T03:34:08.021Z,99.9
2022-10-13T03:36:12.080Z,99.9
2022-10-13T03:38:16.141Z,99.9
2022-10-13T03:40:20.195Z,99.9
2022-10-13T03:42:27.268Z,99.9
2022-10-13T03:44:31.306Z,99.9
2022-10-13T03:46:35.378Z,99.9
2022-10-13T03:48:39.442Z,99.9
2022-10-13T03:50:43.526Z,99.9
2022-10-13T03:52:47.583Z,99.9
2022-10-13T03:54:51.621Z,99.9
2022-10-13T03:56:58.719Z,99.9
2022-10-13T03:59:02.762Z,99.9
2022-10-13T04:01:06.817Z,99.9
2022-10-13T04:03:10.898Z,99.9
2022-10-13T04:05:14.980Z,99.9
2022-10-13T04:07:19.005Z,99.9
2022-10-13T04:11:30.145Z,99.9
2022-10-13T04:15:38.283Z,99.9
2022-10-13T04:16:41.800Z,99.9
2022-10-13T04:18:45.865Z,99.9
2022-10-13T04:20:49.934Z,99.9
2022-10-13T04:22:54.006Z,99.9
2022-10-13T04:25:01.115Z,99.9
2022-10-13T04:33:17.387Z,99.9
2022-10-13T04:35:21.467Z,99.9
2022-10-13T04:37:25.550Z,99.9
2022-10-13T04:39:32.621Z,99.9
2022-10-13T04:41:36.689Z,99.9
2022-10-13T04:43:40.765Z,99.9
2022-10-13T04:45:44.836Z,99.9
2022-10-13T04:47:48.924Z,99.9
2022-10-13T04:49:52.991Z,99.9
2022-10-13T04:51:57.068Z,99.9
2022-10-13T04:54:04.142Z,99.9
2022-10-13T05:00:16.361Z,99.9
2022-10-13T05:02:20.738Z,99.9
2022-10-13T05:06:28.579Z,99.9
2022-10-13T05:10:39.744Z,99.9
2022-10-13T05:12:43.823Z,99.9
2022-10-13T05:13:47.363Z,99.9
2022-10-13T05:15:51.465Z,99.9
2022-10-13T05:17:55.519Z,99.9
2022-10-13T05:19:59.592Z,99.9
2022-10-13T05:22:06.664Z,99.9
2022-10-13T05:24:10.791Z,99.9
2022-10-13T05:28:18.958Z,99.9
2022-10-13T05:30:22.993Z,99.9
2022-10-13T05:32:27.064Z,99.9
2022-10-13T05:34:31.132Z,99.9
2022-10-13T05:36:38.215Z,99.9
2022-10-13T05:40:46.340Z,99.9
2022-10-13T05:42:50.401Z,99.9
2022-10-13T05:55:17.815Z,99.9
2022-10-13T05:57:21.892Z,99.9
2022-10-13T05:59:27.320Z,99.9
2022-10-13T06:01:30.154Z,99.9
2022-10-13T06:03:34.119Z,99.9
2022-10-13T06:05:41.173Z,99.9
2022-10-13T06:07:45.244Z,99.9
2022-10-13T06:09:49.303Z,99.9
2022-10-13T06:12:13.547Z,99.9
2022-10-13T06:14:17.626Z,99.9
2022-10-13T06:16:21.701Z,99.9
2022-10-13T06:18:28.773Z,99.9
2022-10-13T06:20:32.833Z,99.9
2022-10-13T06:22:36.908Z,99.9
2022-10-13T06:24:40.976Z,99.9
2022-10-13T06:26:45.089Z,99.9
2022-10-13T06:28:50.598Z,99.9
2022-10-13T06:30:53.219Z,99.9
2022-10-13T06:33:00.307Z,99.9
2022-10-13T06:35:04.371Z,99.9
2022-10-13T06:37:08.444Z,99.9
2022-10-13T06:39:12.532Z,99.9
2022-10-13T06:41:16.596Z,99.9
2022-10-13T06:43:20.674Z,99.9
2022-10-13T06:45:24.732Z,99.9
2022-10-13T06:47:31.838Z,99.9
2022-10-13T06:49:35.918Z,99.9
2022-10-13T06:51:39.980Z,99.9
2022-10-13T06:53:44.046Z,99.9
2022-10-13T06:55:51.623Z,99.9
2022-10-13T06:57:52.191Z,99.9
2022-10-13T06:59:56.280Z,99.9
2022-10-13T07:02:03.362Z,99.9
2022-10-13T07:04:07.424Z,99.9
2022-10-13T07:06:11.533Z,99.9
2022-10-13T07:07:15.058Z,99.9
2022-10-13T07:09:19.357Z,99.9
2022-10-13T07:11:23.211Z,99.9
2022-10-13T07:13:27.629Z,99.9
2022-10-13T07:15:34.288Z,99.9
2022-10-13T07:17:38.381Z,99.9
2022-10-13T07:19:42.453Z,99.9
2022-10-13T07:21:46.541Z,99.9
2022-10-13T07:23:50.653Z,99.9
2022-10-13T07:25:54.709Z,99.9
2022-10-13T07:27:58.779Z,99.9
2022-10-13T07:30:05.908Z,99.9
2022-10-13T07:32:09.954Z,99.9
2022-10-13T07:34:14.038Z,99.9
2022-10-13T07:36:18.130Z,99.9
2022-10-13T07:38:22.222Z,99.9
2022-10-13T07:40:26.306Z,99.9
2022-10-13T07:42:30.388Z,99.9
2022-10-13T07:44:37.469Z,99.9
2022-10-13T07:46:41.587Z,99.9
2022-10-13T07:48:45.654Z,99.9
2022-10-13T07:50:49.737Z,99.9
2022-10-13T07:52:53.840Z,99.9
2022-10-13T07:54:57.906Z,99.9
2022-10-13T07:57:01.997Z,99.9
2022-10-13T07:59:09.123Z,99.9
2022-10-13T08:01:13.241Z,99.9
2022-10-13T08:03:17.290Z,99.9
2022-10-13T08:04:20.823Z,99.9
2022-10-13T08:06:24.917Z,99.9
2022-10-13T08:08:30.592Z,99.9
2022-10-13T08:16:52.922Z,99.9
2022-10-13T08:21:23.912Z,99.9
2022-10-13T08:23:02.210Z,99.9
2022-10-13T08:25:06.317Z,99.9
2022-10-13T08:27:13.538Z,99.9
2022-10-13T08:29:21.786Z,99.9
2022-10-13T08:31:21.716Z,99.9
2022-10-13T08:33:25.696Z,99.9
2022-10-13T08:35:34.105Z,99.9
2022-10-13T08:39:38.799Z,99.9
2022-10-13T08:44:33.084Z,99.9
2022-10-13T08:45:54.086Z,99.9
2022-10-13T08:47:58.202Z,99.9
2022-10-13T08:50:02.299Z,99.9
2022-10-13T08:52:06.365Z,99.9
2022-10-13T08:54:10.458Z,99.9
2022-10-13T08:56:17.590Z,99.9
2022-10-13T09:01:29.388Z,99.9
2022-10-13T09:03:33.429Z,99.9
2022-10-13T09:05:37.507Z,99.9
2022-10-13T09:07:41.638Z,99.9
2022-10-13T09:09:48.692Z,99.9
2022-10-13T09:11:52.863Z,99.9
2022-10-13T09:13:56.885Z,99.9
2022-10-13T09:16:00.976Z,99.9
2022-10-13T09:18:05.076Z,99.9
2022-10-13T09:20:09.182Z,99.9
2022-10-13T09:22:13.276Z,99.9
2022-10-13T09:24:20.436Z,99.9
2022-10-13T09:26:24.513Z,99.9
2022-10-13T09:28:28.641Z,99.9
2022-10-13T09:30:32.704Z,99.9
2022-10-13T09:32:36.808Z,99.9
2022-10-13T09:34:40.900Z,99.9
2022-10-13T09:36:44.998Z,99.9
2022-10-13T09:38:52.112Z,99.9
2022-10-13T09:40:56.181Z,99.9
2022-10-13T09:43:00.297Z,99.9
2022-10-13T09:45:04.406Z,99.8
2022-10-13T09:47:08.486Z,99.8
2022-10-13T09:49:12.584Z,98.6
2022-10-13T09:51:16.708Z,94.7
2022-10-13T09:53:23.797Z,83.2
2022-10-13T09:55:32.031Z,81.6
2022-10-13T09:57:32.016Z,64.9
2022-10-13T10:06:11.672Z,30.3
2022-10-13T10:12:27.661Z,46
2022-10-13T10:14:28.138Z,45.5
2022-10-13T10:16:32.231Z,36.4
2022-10-13T10:18:36.352Z,44
2022-10-13T10:20:43.466Z,49.3
2022-10-13T10:22:47.595Z,49.4
2022-10-13T10:24:51.708Z,49.5
2022-10-13T10:26:55.847Z,52.1
2022-10-13T10:28:59.979Z,53.7
2022-10-13T10:31:04.060Z,58.2
2022-10-13T10:33:08.198Z,53.9
2022-10-13T10:35:15.307Z,49.5
2022-10-13T10:37:21.427Z,49.2
2022-10-13T10:39:23.572Z,39.4
2022-10-13T10:41:27.678Z,39.9
2022-10-13T10:43:31.805Z,28.9
2022-10-13T10:47:40.035Z,28
2022-10-13T10:49:47.154Z,24
2022-10-13T10:51:51.311Z,16.4
2022-10-13T10:53:55.396Z,16.6
2022-10-13T10:54:58.975Z,15.6
2022-10-13T10:57:03.072Z,11.3
2022-10-13T10:59:07.226Z,11.2
2022-10-13T11:01:11.405Z,10
2022-10-13T11:03:18.460Z,1
2022-10-13T11:05:22.580Z,1
2022-10-13T11:07:26.690Z,1
2022-10-13T11:09:30.815Z,1
2022-10-13T11:11:37.795Z,1
2022-10-13T11:13:39.288Z,1
2022-10-13T11:15:43.224Z,1
2022-10-13T11:17:50.338Z,1
2022-10-13T11:19:54.433Z,1
2022-10-13T11:21:58.582Z,1
2022-10-13T11:24:02.700Z,1
2022-10-13T11:26:06.828Z,1
2022-10-13T11:28:10.945Z,1
2022-10-13T11:30:15.082Z,1
2022-10-13T11:32:22.514Z,1
2022-10-13T11:38:34.573Z,1
2022-10-13T11:40:38.706Z,1
2022-10-13T11:44:46.963Z,1
2022-10-13T11:46:54.105Z,1
2022-10-13T11:48:58.230Z,1
2022-10-13T11:51:02.345Z,1
2022-10-13T11:52:05.918Z,1
2022-10-13T11:54:10.039Z,1
2022-10-13T11:58:18.307Z,1
2022-10-13T12:02:29.596Z,1
2022-10-13T12:08:41.937Z,1
2022-10-13T12:10:46.076Z,6
2022-10-13T12:12:50.328Z,5.4
2022-10-13T12:14:59.872Z,13.6
2022-10-13T12:17:01.456Z,13.8
2022-10-13T12:19:05.563Z,9.8
2022-10-13T12:21:09.678Z,10
2022-10-13T12:23:13.806Z,21.6
2022-10-13T12:25:17.932Z,22.4
2022-10-13T12:27:22.360Z,33.9
2022-10-13T12:29:33.392Z,34.4
2022-10-13T12:35:41.549Z,8.4
2022-10-13T12:39:49.768Z,37.5
2022-10-13T12:41:53.895Z,37
2022-10-13T12:44:03.961Z,50.2
2022-10-13T12:46:05.150Z,49.9
2022-10-13T12:48:09.263Z,50.3
2022-10-13T12:49:12.857Z,59.6
2022-10-13T12:51:16.953Z,60.5
2022-10-13T12:53:21.068Z,72.6
2022-10-13T12:55:25.189Z,80.4
2022-10-13T12:57:32.311Z,83.5
2022-10-13T12:59:36.470Z,87.3
2022-10-13T13:01:40.587Z,87.1
2022-10-13T13:03:44.707Z,88.4
2022-10-13T13:05:52.332Z,99.4
2022-10-13T13:07:52.964Z,99.6
2022-10-13T13:09:57.047Z,99.7
2022-10-13T13:12:04.180Z,99.8
2022-10-13T13:14:08.273Z,99.8
2022-10-13T13:16:12.391Z,99.8
2022-10-13T13:18:16.508Z,99.9
2022-10-13T13:20:20.611Z,99.9
2022-10-13T13:22:24.766Z,99.9
2022-10-13T13:24:39.472Z,99.9
2022-10-13T13:26:35.962Z,99.9
2022-10-13T13:28:40.200Z,99.9
2022-10-13T13:30:44.150Z,99.9
2022-10-13T13:32:48.280Z,99.9
2022-10-13T13:34:52.385Z,99.9
2022-10-13T13:36:56.511Z,99.9
2022-10-13T13:39:00.601Z,99.9
2022-10-13T13:41:07.717Z,99.9
2022-10-13T13:43:11.827Z,99.9
2022-10-13T13:45:15.933Z,99.9
2022-10-13T13:47:34.329Z,99.9
2022-10-13T13:49:38.444Z,99.9
2022-10-13T13:51:42.527Z,99.9
2022-10-13T13:53:49.637Z,99.9
2022-10-13T13:55:53.735Z,99.9
2022-10-13T13:57:57.847Z,99.9
2022-10-13T14:00:02.092Z,99.9
2022-10-13T14:02:06.158Z,1
2022-10-13T14:04:10.180Z,1
2022-10-13T14:06:15.822Z,1
2022-10-13T14:12:31.066Z,59.8
2022-10-13T14:14:35.169Z,41.4
2022-10-13T14:16:39.253Z,61.4
2022-10-13T14:18:43.347Z,62.1
2022-10-13T14:20:47.454Z,99.6
2022-10-13T14:22:54.556Z,61.2
2022-10-13T14:24:58.636Z,1
2022-10-13T14:27:02.731Z,1
2022-10-13T14:29:06.822Z,1
2022-10-13T14:31:10.910Z,1
2022-10-13T14:33:15.014Z,1
2022-10-13T14:35:19.093Z,1
2022-10-13T14:37:31.891Z,99.8
2022-10-13T14:39:30.299Z,99.8
2022-10-13T14:44:42.030Z,99.8
2022-10-13T14:46:46.116Z,99.8
2022-10-13T14:48:50.209Z,99.9
2022-10-13T14:50:57.303Z,99.9
2022-10-13T14:53:01.424Z,99.9
2022-10-13T14:55:05.501Z,1
2022-10-13T14:57:09.610Z,1
2022-10-13T14:59:13.698Z,1
2022-10-13T15:01:17.802Z,1
2022-10-13T15:03:21.975Z,1
2022-10-13T15:05:28.979Z,99.9
2022-10-13T15:07:33.093Z,99.9
2022-10-13T15:09:53.190Z,99.9
2022-10-13T15:11:41.276Z,99.9
2022-10-13T15:20:00.671Z,99.9
2022-10-13T15:22:04.756Z,99.9
2022-10-13T15:24:08.854Z,99.9
2022-10-13T15:26:13.108Z,99.9
2022-10-13T15:28:17.249Z,99.9
2022-10-13T15:30:21.290Z,99.9
2022-10-13T15:34:32.505Z,99.9
2022-10-13T15:38:40.686Z,99.9
2022-10-13T15:41:48.340Z,99.9
2022-10-13T15:43:52.436Z,99.9
2022-10-13T15:45:56.545Z,99.9
2022-10-13T15:48:03.665Z,99.9
2022-10-13T15:50:07.749Z,99.9
2022-10-13T15:52:12.012Z,99.9
2022-10-13T15:54:15.952Z,99.9
2022-10-13T15:56:20.059Z,99.9
2022-10-13T15:58:24.143Z,99.9
2022-10-13T16:00:28.301Z,99.9
2022-10-13T16:02:35.341Z,99.9
2022-10-13T16:04:39.437Z,99.9
2022-10-13T16:06:43.560Z,99.9
2022-10-13T16:08:47.661Z,99.9
2022-10-13T16:10:51.741Z,99.9
2022-10-13T16:12:55.861Z,99.9
2022-10-13T16:14:59.931Z,1
2022-10-13T16:17:07.042Z,99.9
2022-10-13T16:19:11.173Z,99.9
2022-10-13T16:21:18.632Z,1
2022-10-13T16:23:19.358Z,1
2022-10-13T16:25:23.434Z,1
2022-10-13T16:27:27.523Z,1
2022-10-13T16:29:31.621Z,1
2022-10-13T16:31:38.729Z,1
2022-10-13T16:33:42.840Z,1
2022-10-13T16:35:46.924Z,1
2022-10-13T16:36:50.495Z,1
2022-10-13T16:38:54.561Z,1
2022-10-13T16:40:58.660Z,1
2022-10-13T16:43:02.773Z,13.7
2022-10-13T16:45:09.873Z,44.8
2022-10-13T16:47:18.039Z,53.6
2022-10-13T16:51:22.173Z,61.7
2022-10-13T16:53:26.256Z,86.4
2022-10-13T16:55:30.356Z,99.6
2022-10-13T16:57:34.438Z,99.8
2022-10-13T16:59:41.555Z,99.8
2022-10-13T17:01:45.650Z,99.8
2022-10-13T17:03:49.753Z,99.8
2022-10-13T17:05:53.843Z,99.8
2022-10-13T17:07:57.932Z,99.9
2022-10-13T17:10:02.062Z,99.9
2022-10-13T17:12:06.128Z,99.9
2022-10-13T17:14:13.225Z,99.9
2022-10-13T17:16:17.312Z,99.9
2022-10-13T17:18:21.397Z,99.9
2022-10-13T17:20:25.629Z,99.9
2022-10-13T17:22:29.586Z,1
2022-10-13T17:24:33.679Z,99.9
2022-10-13T17:26:37.780Z,1
2022-10-13T17:28:44.976Z,1
2022-10-13T17:30:49.152Z,1
2022-10-13T17:32:53.087Z,1
2022-10-13T17:35:17.090Z,1
2022-10-13T17:37:21.604Z,1
2022-10-13T17:39:25.287Z,1
2022-10-13T17:47:44.704Z,1
2022-10-13T17:49:48.802Z,1
2022-10-13T17:56:04.107Z,1
2022-10-13T17:58:08.211Z,1
2022-10-13T18:00:12.318Z,1
2022-10-13T18:02:16.499Z,1
2022-10-13T18:04:20.507Z,1
2022-10-13T18:08:28.667Z,1
2022-10-13T18:12:39.888Z,1
2022-10-13T18:14:43.984Z,1
2022-10-13T18:16:48.082Z,1
2022-10-13T18:18:52.173Z,1
2022-10-13T18:20:56.231Z,1
2022-10-13T18:23:00.316Z,19
2022-10-13T18:27:11.518Z,54.1
2022-10-13T18:30:22.402Z,75.9
2022-10-13T18:32:23.258Z,74.1
2022-10-13T18:34:27.327Z,77
2022-10-13T18:36:31.423Z,77.1
2022-10-13T18:38:38.530Z,93.1
2022-10-13T18:40:42.600Z,94.4
2022-10-13T18:44:50.792Z,77.7
2022-10-13T18:46:54.889Z,77.4
2022-10-13T18:48:58.968Z,74.6
2022-10-13T18:53:10.174Z,71.2
2022-10-13T18:57:18.654Z,65.8
2022-10-13T18:59:22.434Z,72
2022-10-13T19:03:30.608Z,67.2
2022-10-13T19:07:42.393Z,75.3
2022-10-13T19:09:46.477Z,75.1
2022-10-13T19:11:50.550Z,71
2022-10-13T19:13:54.866Z,62.2
2022-10-13T19:15:58.712Z,3.1
2022-10-13T19:18:02.813Z,1
2022-10-13T19:20:06.902Z,1
2022-10-13T19:22:14.001Z,1
2022-10-13T19:26:22.175Z,1
2022-10-13T19:27:25.706Z,1
2022-10-13T19:29:29.802Z,1
2022-10-13T19:31:33.906Z,1
2022-10-13T19:33:43.463Z,99.6
2022-10-13T19:35:45.075Z,99.8
2022-10-13T19:37:49.227Z,99.8
2022-10-13T19:39:53.240Z,99.8
2022-10-13T19:41:57.351Z,99.8
2022-10-13T19:44:01.425Z,99.8
2022-10-13T19:46:05.521Z,99.9
2022-10-13T19:48:09.620Z,99.9
2022-10-13T19:50:16.709Z,99.9
2022-10-13T19:52:20.809Z,99.9
2022-10-13T19:54:26.318Z,99.9
2022-10-13T19:56:28.961Z,99.9
2022-10-13T19:58:33.073Z,93.1
2022-10-13T20:00:37.356Z,62.6
2022-10-13T20:02:41.248Z,61.8
2022-10-13T20:04:49.886Z,1
2022-10-13T20:06:54.004Z,1
2022-10-13T20:08:58.072Z,1
2022-10-13T20:11:02.184Z,1
2022-10-13T20:13:06.255Z,1
2022-10-13T20:15:10.336Z,1
2022-10-13T20:17:14.437Z,1
2022-10-13T20:19:21.535Z,1
2022-10-13T20:21:25.617Z,1
2022-10-13T20:23:29.726Z,1
2022-10-13T20:24:33.286Z,1
2022-10-13T20:26:37.368Z,1
2022-10-13T20:28:43.068Z,1
2022-10-13T20:30:45.546Z,1
2022-10-13T20:32:52.640Z,1
2022-10-13T20:34:56.746Z,1
2022-10-13T20:37:00.840Z,1
2022-10-13T20:39:04.959Z,1
2022-10-13T20:41:09.016Z,1
2022-10-13T20:43:13.103Z,1
2022-10-13T20:45:17.220Z,1
2022-10-13T20:47:24.342Z,1
2022-10-13T20:49:28.388Z,1
2022-10-13T20:51:32.484Z,1
2022-10-13T20:53:36.582Z,1
2022-10-13T20:55:41.981Z,11.3
2022-10-13T20:57:44.755Z,28.2
2022-10-13T20:59:48.843Z,1.8
2022-10-13T21:01:55.939Z,22.8
2022-10-13T21:04:00.015Z,41.5
2022-10-13T21:06:04.112Z,26.9
2022-10-13T21:08:08.232Z,6.8
2022-10-13T21:10:12.308Z,1
2022-10-13T21:12:16.416Z,1
2022-10-13T21:14:20.485Z,1
2022-10-13T21:16:27.599Z,1
2022-10-13T21:18:31.684Z,1
2022-10-13T21:20:35.782Z,1
2022-10-13T21:23:00.377Z,99.6
2022-10-13T21:25:04.457Z,99.8
2022-10-13T21:27:08.542Z,99.8
2022-10-13T21:29:15.650Z,99.8
2022-10-13T21:31:19.725Z,99.8
2022-10-13T21:33:23.817Z,99.8
2022-10-13T21:35:27.908Z,99.9
2022-10-13T21:37:31.987Z,99.9
2022-10-13T21:41:40.163Z,99.9
2022-10-13T21:43:47.242Z,99.9
2022-10-13T21:45:51.341Z,99.9
2022-10-13T21:49:59.474Z,99.9
2022-10-13T21:52:03.555Z,99.9
2022-10-13T21:54:07.659Z,99.9
2022-10-13T21:56:11.740Z,99.9
2022-10-13T21:58:18.822Z,1
2022-10-13T22:00:22.984Z,1
2022-10-13T22:02:26.983Z,1
2022-10-13T22:04:31.044Z,1
2022-10-13T22:06:35.110Z,1
2022-10-13T22:08:39.220Z,1
2022-10-13T22:10:43.267Z,1
2022-10-13T22:12:50.339Z,1
2022-10-13T22:14:54.435Z,1
2022-10-13T22:16:58.480Z,1
2022-10-13T22:18:02.038Z,30.7
2022-10-13T22:20:06.091Z,59
2022-10-13T22:22:10.164Z,59.9
2022-10-13T22:24:14.232Z,99.6
2022-10-13T22:26:21.333Z,62.2
2022-10-13T22:28:25.428Z,61.4
2022-10-13T22:30:29.444Z,61.1
2022-10-13T22:32:33.506Z,99.6
2022-10-13T22:34:37.561Z,99.8
2022-10-13T22:36:44.848Z,99.8
2022-10-13T22:38:45.701Z,99.8
2022-10-13T22:40:52.768Z,99.8
2022-10-13T22:42:56.808Z,99.8
2022-10-13T22:45:00.906Z,99.9
2022-10-13T22:47:04.957Z,1
2022-10-13T22:49:09.007Z,1
2022-10-13T22:51:13.054Z,1
2022-10-13T22:53:17.119Z,1
2022-10-13T22:57:28.247Z,1
2022-10-13T23:03:40.469Z,74.1
2022-10-13T23:05:44.480Z,74.4
2022-10-13T23:07:48.533Z,99.6
2022-10-13T23:12:00.034Z,99.8
2022-10-13T23:14:03.764Z,99.8
2022-10-13T23:15:07.276Z,99.8
2022-10-13T23:17:11.332Z,99.8
2022-10-13T23:21:19.436Z,99.9
2022-10-13T23:25:30.541Z,99.9
2022-10-13T23:27:34.609Z,99.9
2022-10-13T23:29:38.667Z,99.9
2022-10-13T23:31:42.719Z,99.9
2022-10-13T23:33:46.753Z,99.9
2022-10-13T23:35:50.808Z,99.9
2022-10-13T23:37:57.896Z,99.9
2022-10-13T23:40:02.010Z,99.9
2022-10-13T23:42:06.006Z,99.9
2022-10-13T23:44:10.069Z,99.9
2022-10-13T23:46:14.116Z,99.9
2022-10-13T23:48:18.155Z,99.9
2022-10-13T23:50:22.212Z,99.9
2022-10-13T23:52:29.276Z,99.9
2022-10-13T23:54:33.341Z,99.9
